Hordafor III — LLVC — position and weather

sailwx.info

Track history (hours):
 
Tides and Currents Weather Stations Pressure Air Temp Water Temp Dewpoint Dewpoint Depression Visibility Wind Speed Wind Dir Waves Ship Positions

Hordafor III

Last reported at 2015-Feb-26 09:33 UTC. Time now 2015-Mar-03 03:15 UTC.
Position N 59°26' E 005°14'.

Length 50 m; draft 5.2 m.

Type: Cargo ship. MMSI: 258044000.

Date/timePositionNaut miles runAvg speedWind from/ knotsBaromVisibWave heightAir tempDewpointWater temp
2015-Feb-26 09:33N 59°26' E 005°14'1310.6
2015-Feb-26 08:19N 59°13' E 005°21'810.8
2015-Feb-26 07:33N 59°06' E 005°29'1110.9
2015-Feb-26 06:33N 58°56' E 005°33'10 9.9
2015-Feb-26 05:33N 58°47' E 005°24'2310.8
2015-Feb-26 03:28N 58°28' E 005°46'1010.9
2015-Feb-26 02:33N 58°21' E 005°60'1110.9
2015-Feb-26 01:33N 58°14' E 006°15'10 0.3
2015-Feb-24 13:26N 58°06' E 006°28'8 9.5
2015-Feb-24 12:33N 58°12' E 006°16'8 8.5
2015-Feb-24 11:33N 58°17' E 006°03'8 7.7
2015-Feb-24 10:33N 58°22' E 005°52'5 5.4
2015-Feb-24 09:33N 58°26' E 005°44'5 4.9
2015-Feb-24 08:33N 58°30' E 005°40'21 5.3
2015-Feb-24 04:33N 58°49' E 005°22'7 6.9
2015-Feb-24 03:32N 58°56' E 005°20'9 7.6
2015-Feb-24 02:24N 59°04' E 005°19'8 8.6
2015-Feb-24 01:32N 59°12' E 005°20'1010.1
2015-Feb-24 00:33N 59°22' E 005°18'  
2015-Feb-20 01:07N 64°48' E 011°06'5 9.5
2015-Feb-20 00:33N 64°51' E 011°15'1010.0
2015-Feb-19 23:33N 64°58' E 011°33'80 9.6
2015-Feb-19 15:10N 66°14' E 012°35'6 9.8
2015-Feb-19 14:33N 66°18' E 012°23'4 4.2
2015-Feb-19 13:33N 66°22' E 012°23'0 0.0
2015-Feb-19 12:33N 66°22' E 012°23'0 0.0
2015-Feb-19 11:33N 66°22' E 012°23'0 0.1
2015-Feb-19 10:33N 66°22' E 012°22'0 0.0
2015-Feb-19 09:33N 66°22' E 012°22'0 0.0
2015-Feb-19 08:33N 66°22' E 012°22'0 0.0
2015-Feb-19 07:33N 66°22' E 012°22'0 0.1
2015-Feb-19 06:33N 66°22' E 012°23'0 0.0
2015-Feb-19 05:33N 66°22' E 012°23'0 0.0
2015-Feb-19 04:33N 66°22' E 012°23'0 0.0
2015-Feb-19 03:33N 66°22' E 012°23'0 0.0
2015-Feb-19 02:33N 66°22' E 012°23'0 0.0
2015-Feb-19 01:33N 66°22' E 012°23'0 0.0
2015-Feb-19 00:33N 66°22' E 012°23'0 0.0
2015-Feb-18 23:33N 66°22' E 012°23'0 0.0
2015-Feb-18 22:33N 66°22' E 012°23'7 7.3
2015-Feb-18 21:33N 66°15' E 012°28'6410.5
2015-Feb-18 15:26N 65°12' E 011°53'2111.1
2015-Feb-18 13:33N 64°55' E 011°24'  
Track history (hours):
 
Tides and Currents Weather Stations Pressure Air Temp Water Temp Dewpoint Dewpoint Depression Visibility Wind Speed Wind Dir Waves Ship Positions

Hordafor III

Last reported at 2015-Feb-26 09:33 UTC. Time now 2015-Mar-03 03:16 UTC.
Position N 59°26' E 005°14'.

Length 50 m; draft 5.2 m.

Type: Cargo ship. MMSI: 258044000.

Date/timePositionNaut miles runAvg speedWind from/ knotsBaromVisibWave heightAir tempDewpointWater temp
2015-Feb-26 09:33N 59°26' E 005°14'1310.6
2015-Feb-26 08:19N 59°13' E 005°21'810.8
2015-Feb-26 07:33N 59°06' E 005°29'1110.9
2015-Feb-26 06:33N 58°56' E 005°33'10 9.9
2015-Feb-26 05:33N 58°47' E 005°24'2310.8
2015-Feb-26 03:28N 58°28' E 005°46'1010.9
2015-Feb-26 02:33N 58°21' E 005°60'1110.9
2015-Feb-26 01:33N 58°14' E 006°15'10 0.3
2015-Feb-24 13:26N 58°06' E 006°28'8 9.5
2015-Feb-24 12:33N 58°12' E 006°16'8 8.5
2015-Feb-24 11:33N 58°17' E 006°03'8 7.7
2015-Feb-24 10:33N 58°22' E 005°52'5 5.4
2015-Feb-24 09:33N 58°26' E 005°44'5 4.9
2015-Feb-24 08:33N 58°30' E 005°40'21 5.3
2015-Feb-24 04:33N 58°49' E 005°22'7 6.9
2015-Feb-24 03:32N 58°56' E 005°20'9 7.6
2015-Feb-24 02:24N 59°04' E 005°19'8 8.6
2015-Feb-24 01:32N 59°12' E 005°20'1010.1
2015-Feb-24 00:33N 59°22' E 005°18'  
2015-Feb-20 01:07N 64°48' E 011°06'5 9.5
2015-Feb-20 00:33N 64°51' E 011°15'1010.0
2015-Feb-19 23:33N 64°58' E 011°33'80 9.6
2015-Feb-19 15:10N 66°14' E 012°35'6 9.8
2015-Feb-19 14:33N 66°18' E 012°23'4 4.2
2015-Feb-19 13:33N 66°22' E 012°23'0 0.0
2015-Feb-19 12:33N 66°22' E 012°23'0 0.0
2015-Feb-19 11:33N 66°22' E 012°23'0 0.1
2015-Feb-19 10:33N 66°22' E 012°22'0 0.0
2015-Feb-19 09:33N 66°22' E 012°22'0 0.0
2015-Feb-19 08:33N 66°22' E 012°22'0 0.0
2015-Feb-19 07:33N 66°22' E 012°22'0 0.1
2015-Feb-19 06:33N 66°22' E 012°23'0 0.0
2015-Feb-19 05:33N 66°22' E 012°23'0 0.0
2015-Feb-19 04:33N 66°22' E 012°23'0 0.0
2015-Feb-19 03:33N 66°22' E 012°23'0 0.0
2015-Feb-19 02:33N 66°22' E 012°23'0 0.0
2015-Feb-19 01:33N 66°22' E 012°23'0 0.0
2015-Feb-19 00:33N 66°22' E 012°23'0 0.0
2015-Feb-18 23:33N 66°22' E 012°23'0 0.0
2015-Feb-18 22:33N 66°22' E 012°23'7 7.3
2015-Feb-18 21:33N 66°15' E 012°28'6410.5
2015-Feb-18 15:26N 65°12' E 011°53'2111.1
2015-Feb-18 13:33N 64°55' E 011°24'  

Dump ship's entire track history